createdAt,value
2023-03-30T00:01:15.070Z,10.67
2023-03-30T00:03:44.895Z,10.36
2023-03-30T00:06:21.208Z,10.50
2023-03-30T00:08:49.574Z,10.22
2023-03-30T00:11:19.975Z,10.69
2023-03-30T00:13:48.118Z,10.13
2023-03-30T00:16:17.054Z,10.41
2023-03-30T00:18:45.795Z,10.18
2023-03-30T00:21:18.465Z,10.17
2023-03-30T00:23:48.222Z,10.10
2023-03-30T00:26:17.398Z,10.03
2023-03-30T00:28:47.315Z,10.23
2023-03-30T00:31:16.680Z,9.84
2023-03-30T00:33:46.826Z,9.83
2023-03-30T00:36:17.262Z,10.21
2023-03-30T00:38:48.496Z,9.97
2023-03-30T00:41:17.869Z,9.82
2023-03-30T00:44:01.794Z,10.55
2023-03-30T00:46:31.150Z,9.87
2023-03-30T00:49:04.151Z,10.21
2023-03-30T00:51:34.040Z,10.18
2023-03-30T00:54:07.276Z,10.22
2023-03-30T00:56:36.051Z,9.84
2023-03-30T00:59:06.425Z,10.24
2023-03-30T01:01:39.050Z,9.78
2023-03-30T01:04:10.085Z,10.36
2023-03-30T01:06:40.305Z,10.19
2023-03-30T01:09:09.536Z,10.11
2023-03-30T01:11:37.791Z,10.00
2023-03-30T01:14:09.713Z,10.56
2023-03-30T01:16:43.477Z,10.64
2023-03-30T01:19:40.396Z,10.94
2023-03-30T01:22:28.832Z,10.85
2023-03-30T01:25:20.992Z,10.80
2023-03-30T01:28:22.431Z,10.90
2023-03-30T01:31:21.099Z,11.29
2023-03-30T01:34:02.262Z,10.88
2023-03-30T01:36:58.036Z,10.91
2023-03-30T01:39:36.520Z,10.71
2023-03-30T01:42:13.067Z,10.79
2023-03-30T01:44:48.148Z,10.87
2023-03-30T01:47:21.123Z,10.77
2023-03-30T01:49:57.370Z,10.91
2023-03-30T01:52:30.517Z,10.51
2023-03-30T01:55:04.879Z,10.68
2023-03-30T01:57:37.119Z,10.57
2023-03-30T02:00:14.377Z,10.36
2023-03-30T02:02:45.927Z,10.55
2023-03-30T02:05:18.026Z,10.34
2023-03-30T02:07:51.078Z,10.62
2023-03-30T02:10:22.908Z,10.77
2023-03-30T02:12:52.569Z,10.73
2023-03-30T02:15:21.309Z,10.48
2023-03-30T02:17:50.024Z,10.42
2023-03-30T02:20:19.068Z,10.39
2023-03-30T02:22:47.802Z,10.45
2023-03-30T02:25:16.220Z,10.36
2023-03-30T02:27:46.840Z,10.79
2023-03-30T02:30:15.866Z,10.58
2023-03-30T02:32:46.984Z,10.77
2023-03-30T02:35:22.508Z,10.98
2023-03-30T02:38:13.018Z,11.09
2023-03-30T02:40:44.854Z,10.81
2023-03-30T02:43:25.148Z,10.98
2023-03-30T02:45:55.131Z,10.67
2023-03-30T02:48:33.292Z,11.06
2023-03-30T02:51:19.181Z,10.98
2023-03-30T02:53:50.359Z,10.80
2023-03-30T02:56:25.273Z,11.01
2023-03-30T02:58:57.666Z,10.84
2023-03-30T03:01:29.984Z,10.80
2023-03-30T03:03:59.429Z,10.61
2023-03-30T03:06:28.260Z,10.60
2023-03-30T03:08:57.589Z,10.51
2023-03-30T03:11:26.098Z,10.26
2023-03-30T03:13:56.628Z,10.72
2023-03-30T03:16:25.075Z,10.38
2023-03-30T03:18:53.744Z,10.36
2023-03-30T03:21:21.941Z,10.48
2023-03-30T03:23:50.576Z,10.42
2023-03-30T03:26:18.850Z,10.40
2023-03-30T03:28:47.390Z,10.44
2023-03-30T03:31:17.063Z,10.73
2023-03-30T03:33:46.106Z,10.39
2023-03-30T03:36:14.391Z,10.38
2023-03-30T03:38:42.992Z,10.44
2023-03-30T03:41:11.282Z,10.27
2023-03-30T03:43:39.732Z,10.32
2023-03-30T03:46:08.204Z,10.29
2023-03-30T03:48:38.543Z,10.86
2023-03-30T03:51:07.174Z,10.52
2023-03-30T03:53:35.814Z,10.44
2023-03-30T03:56:04.165Z,10.34
2023-03-30T03:58:32.741Z,10.50
2023-03-30T04:01:02.041Z,10.65
2023-03-30T04:03:30.865Z,10.45
2023-03-30T04:06:03.695Z,11.02
2023-03-30T04:08:32.237Z,10.46
2023-03-30T04:11:08.006Z,11.02
2023-03-30T04:13:36.860Z,10.36
2023-03-30T04:16:05.477Z,10.43
2023-03-30T04:18:34.698Z,10.51
2023-03-30T04:21:05.788Z,10.78
2023-03-30T04:23:35.026Z,10.57
2023-03-30T04:26:04.664Z,10.35
2023-03-30T04:28:34.461Z,10.58
2023-03-30T04:31:04.510Z,10.60
2023-03-30T04:33:34.965Z,10.36
2023-03-30T04:36:04.780Z,10.63
2023-03-30T04:38:33.379Z,10.23
2023-03-30T04:41:02.429Z,10.38
2023-03-30T04:43:31.505Z,10.09
2023-03-30T04:45:59.900Z,10.13
2023-03-30T04:48:28.551Z,10.14
2023-03-30T04:50:59.129Z,10.18
2023-03-30T04:53:29.229Z,10.62
2023-03-30T04:55:57.443Z,10.19
2023-03-30T04:58:26.140Z,10.28
2023-03-30T05:00:54.773Z,10.20
2023-03-30T05:03:23.677Z,10.11
2023-03-30T05:05:52.099Z,10.17
2023-03-30T05:08:20.915Z,10.33
2023-03-30T05:10:50.800Z,10.76
2023-03-30T05:13:19.547Z,10.58
2023-03-30T05:15:54.319Z,11.04
2023-03-30T05:18:22.966Z,10.60
2023-03-30T05:20:51.557Z,10.59
2023-03-30T05:23:20.037Z,10.77
2023-03-30T05:25:51.634Z,11.01
2023-03-30T05:28:21.088Z,10.79
2023-03-30T05:30:54.764Z,11.45
2023-03-30T05:33:24.672Z,10.98
2023-03-30T05:35:56.616Z,10.91
2023-03-30T05:38:28.922Z,11.02
2023-03-30T05:40:59.640Z,11.29
2023-03-30T05:43:28.833Z,10.98
2023-03-30T05:45:58.065Z,11.00
2023-03-30T05:48:27.085Z,10.97
2023-03-30T05:50:55.939Z,10.96
2023-03-30T05:53:25.322Z,11.03
2023-03-30T05:55:54.009Z,11.32
2023-03-30T05:58:24.880Z,11.92
2023-03-30T06:00:54.488Z,11.78
2023-03-30T06:03:23.934Z,11.83
2023-03-30T06:05:54.624Z,12.25
2023-03-30T06:08:23.847Z,11.92
2023-03-30T06:10:56.585Z,12.39
2023-03-30T06:13:27.523Z,12.28
2023-03-30T06:15:57.157Z,12.00
2023-03-30T06:18:26.589Z,11.93
2023-03-30T06:20:55.628Z,12.03
2023-03-30T06:23:25.262Z,12.17
2023-03-30T06:25:55.309Z,12.20
2023-03-30T06:28:25.267Z,12.27
2023-03-30T06:30:55.674Z,12.63
2023-03-30T06:33:25.736Z,12.25
2023-03-30T06:35:55.648Z,12.65
2023-03-30T06:38:25.041Z,12.67
2023-03-30T06:40:53.581Z,12.41
2023-03-30T06:43:24.080Z,12.76
2023-03-30T06:45:54.918Z,12.68
2023-03-30T06:48:25.150Z,13.05
2023-03-30T06:50:54.622Z,12.84
2023-03-30T06:53:23.709Z,13.07
2023-03-30T06:55:53.567Z,13.22
2023-03-30T06:58:22.905Z,13.31
2023-03-30T07:00:51.899Z,13.30
2023-03-30T07:03:22.109Z,13.89
2023-03-30T07:05:51.984Z,13.85
2023-03-30T07:08:21.608Z,13.94
2023-03-30T07:10:51.456Z,13.77
2023-03-30T07:13:19.764Z,13.84
2023-03-30T07:15:48.970Z,13.96
2023-03-30T07:18:17.761Z,13.98
2023-03-30T07:20:48.420Z,14.53
2023-03-30T07:23:16.794Z,14.52
2023-03-30T07:25:46.006Z,15.32
2023-03-30T07:28:15.352Z,16.50
2023-03-30T07:30:44.431Z,17.37
2023-03-30T07:33:12.980Z,18.68
2023-03-30T07:35:45.067Z,19.73
2023-03-30T07:38:15.625Z,20.44
2023-03-30T07:40:44.288Z,21.18
2023-03-30T07:43:12.756Z,22.16
2023-03-30T07:45:41.475Z,23.00
2023-03-30T07:48:10.257Z,23.36
2023-03-30T07:50:39.289Z,24.00
2023-03-30T07:53:08.431Z,24.88
2023-03-30T07:55:38.436Z,26.46
2023-03-30T07:58:07.961Z,26.62
2023-03-30T08:00:37.758Z,25.83
2023-03-30T08:03:06.537Z,26.04
2023-03-30T08:05:35.816Z,26.92
2023-03-30T08:08:04.454Z,26.98
2023-03-30T08:10:33.981Z,26.56
2023-03-30T08:13:04.810Z,25.85
2023-03-30T08:15:33.920Z,24.89
2023-03-30T08:18:06.898Z,24.53
2023-03-30T08:20:36.532Z,24.54
2023-03-30T08:23:05.447Z,24.19
2023-03-30T08:25:34.759Z,24.41
2023-03-30T08:28:05.934Z,25.53
2023-03-30T08:30:35.151Z,24.24
2023-03-30T08:33:04.044Z,23.48
2023-03-30T08:35:32.824Z,22.86
2023-03-30T08:38:01.277Z,22.78
2023-03-30T08:40:30.527Z,22.37
2023-03-30T08:43:11.600Z,22.77
2023-03-30T08:45:42.863Z,22.63
2023-03-30T08:48:17.160Z,22.89
2023-03-30T08:50:49.474Z,22.83
2023-03-30T08:53:17.992Z,22.42
2023-03-30T08:55:48.627Z,22.40
2023-03-30T08:58:25.121Z,22.59
2023-03-30T09:00:57.610Z,22.33
2023-03-30T09:03:29.539Z,22.05
2023-03-30T09:06:01.957Z,21.80
2023-03-30T09:08:32.267Z,22.61
2023-03-30T09:11:02.619Z,24.40
2023-03-30T09:13:35.157Z,26.14
2023-03-30T09:16:11.757Z,28.03
2023-03-30T09:18:45.370Z,28.87
2023-03-30T09:21:14.910Z,29.32
2023-03-30T09:23:44.358Z,29.36
2023-03-30T09:26:20.724Z,30.04
2023-03-30T09:28:57.805Z,30.53
2023-03-30T09:31:32.322Z,31.37
2023-03-30T09:34:07.894Z,32.40
2023-03-30T09:36:41.427Z,33.77
2023-03-30T09:39:19.893Z,34.32
2023-03-30T09:42:00.273Z,34.30
2023-03-30T09:44:37.564Z,34.59
2023-03-30T09:47:20.822Z,34.14
2023-03-30T09:49:50.162Z,34.26
2023-03-30T09:52:22.122Z,36.00
2023-03-30T09:54:51.351Z,35.58
2023-03-30T09:57:29.255Z,35.00
2023-03-30T10:00:01.093Z,32.61
2023-03-30T10:02:31.710Z,30.16
2023-03-30T10:05:03.655Z,29.06
2023-03-30T10:07:34.996Z,27.54
2023-03-30T10:10:15.330Z,27.52
2023-03-30T10:12:44.387Z,28.73
2023-03-30T10:15:19.760Z,30.43
2023-03-30T10:17:51.583Z,30.36
2023-03-30T10:20:27.033Z,32.53
2023-03-30T10:22:57.347Z,32.42
2023-03-30T10:25:29.782Z,30.91
2023-03-30T10:28:01.546Z,28.82
2023-03-30T10:30:33.051Z,29.80
2023-03-30T10:33:02.028Z,32.04
2023-03-30T10:35:35.982Z,32.60
2023-03-30T10:38:05.958Z,33.03
2023-03-30T10:40:36.892Z,33.02
2023-03-30T10:43:07.853Z,32.54
2023-03-30T10:45:40.926Z,31.84
2023-03-30T10:48:36.229Z,32.47
2023-03-30T10:51:12.290Z,34.00
2023-03-30T10:53:48.069Z,34.92
2023-03-30T10:56:24.281Z,35.06
2023-03-30T10:59:06.264Z,34.57
2023-03-30T11:01:43.986Z,34.08
2023-03-30T11:04:23.537Z,33.26
2023-03-30T11:06:54.709Z,33.42
2023-03-30T11:09:26.245Z,33.12
2023-03-30T11:11:57.746Z,33.48
2023-03-30T11:14:29.366Z,33.89
2023-03-30T11:17:02.007Z,34.29
2023-03-30T11:19:33.538Z,34.36
2023-03-30T11:22:06.829Z,34.83
2023-03-30T11:24:35.648Z,34.01
2023-03-30T11:27:06.927Z,31.83
2023-03-30T11:29:37.019Z,30.51
2023-03-30T11:32:17.872Z,27.89
2023-03-30T11:34:55.067Z,26.09
2023-03-30T11:37:30.005Z,24.67
2023-03-30T11:40:04.261Z,23.70
2023-03-30T11:42:33.606Z,23.17
2023-03-30T11:45:02.881Z,23.02
2023-03-30T11:47:46.887Z,23.77
2023-03-30T11:50:25.684Z,24.04
2023-03-30T11:53:01.231Z,24.50
2023-03-30T11:55:40.969Z,24.65
2023-03-30T11:58:16.055Z,24.46
2023-03-30T12:00:50.872Z,24.13
2023-03-30T12:03:37.570Z,23.63
2023-03-30T12:06:23.594Z,23.06
2023-03-30T12:09:02.981Z,22.98
2023-03-30T12:11:36.603Z,23.30
2023-03-30T12:14:13.869Z,23.20
2023-03-30T12:16:47.056Z,23.34
2023-03-30T12:19:18.913Z,23.28
2023-03-30T12:21:53.441Z,23.25
2023-03-30T12:24:24.992Z,22.84
2023-03-30T12:32:12.328Z,22.68
2023-03-30T12:34:45.192Z,22.18
2023-03-30T12:37:15.035Z,21.77
2023-03-30T12:39:49.143Z,21.65
2023-03-30T12:42:34.838Z,21.76
2023-03-30T12:45:37.544Z,21.95
2023-03-30T12:48:30.732Z,22.02
2023-03-30T12:51:09.174Z,21.31
2023-03-30T12:54:01.963Z,21.29
2023-03-30T12:56:38.593Z,20.88
2023-03-30T12:59:30.813Z,20.77
2023-03-30T13:02:05.732Z,20.39
2023-03-30T13:04:37.906Z,20.05
2023-03-30T13:07:08.982Z,20.30
2023-03-30T13:09:54.694Z,20.13
2023-03-30T13:12:32.590Z,20.18
2023-03-30T13:15:03.671Z,20.02
2023-03-30T13:17:46.990Z,20.99
2023-03-30T13:20:29.115Z,20.47
2023-03-30T13:23:22.818Z,20.47
2023-03-30T13:25:54.508Z,20.24
2023-03-30T13:28:48.816Z,20.46
2023-03-30T13:31:27.949Z,20.33
2023-03-30T13:34:01.683Z,20.21
2023-03-30T13:36:31.982Z,20.07
2023-03-30T13:39:07.693Z,20.13
2023-03-30T13:41:47.946Z,20.27
2023-03-30T13:44:34.158Z,20.32
2023-03-30T13:47:11.581Z,19.98
2023-03-30T13:49:47.973Z,20.05
2023-03-30T13:52:19.105Z,19.60
2023-03-30T13:54:49.265Z,19.56
2023-03-30T13:57:20.908Z,19.25
2023-03-30T13:59:52.488Z,19.26
2023-03-30T14:02:21.156Z,19.83
2023-03-30T14:04:50.890Z,18.90
2023-03-30T14:07:21.177Z,19.26
2023-03-30T14:10:08.702Z,19.47
2023-03-30T14:12:39.745Z,19.21
2023-03-30T14:15:18.166Z,19.29
2023-03-30T14:17:52.172Z,19.30
2023-03-30T14:20:29.867Z,19.09
2023-03-30T14:23:00.492Z,18.16
2023-03-30T14:25:33.471Z,18.79
2023-03-30T14:28:04.611Z,18.52
2023-03-30T14:30:34.553Z,19.40
2023-03-30T14:33:08.069Z,18.73
2023-03-30T14:35:41.382Z,18.30
2023-03-30T14:38:17.233Z,18.69
2023-03-30T14:40:48.068Z,18.80
2023-03-30T14:43:19.902Z,18.49
2023-03-30T14:45:48.655Z,17.84
2023-03-30T14:48:24.021Z,17.98
2023-03-30T14:50:52.563Z,17.17
2023-03-30T14:53:25.573Z,17.64
2023-03-30T14:55:57.346Z,17.28
2023-03-30T14:58:27.021Z,17.11
2023-03-30T15:00:58.892Z,17.46
2023-03-30T15:03:33.874Z,17.64
2023-03-30T15:06:04.223Z,17.38
2023-03-30T15:08:34.479Z,17.16
2023-03-30T15:11:09.199Z,17.40
2023-03-30T15:13:39.356Z,17.24
2023-03-30T15:16:08.580Z,16.90
2023-03-30T15:18:38.024Z,16.78
2023-03-30T15:21:09.936Z,16.83
2023-03-30T15:23:42.134Z,16.90
2023-03-30T15:26:13.454Z,16.95
2023-03-30T15:28:44.761Z,16.92
2023-03-30T15:31:16.496Z,16.76
2023-03-30T15:33:45.502Z,17.52
2023-03-30T15:36:15.803Z,16.70
2023-03-30T15:38:47.857Z,16.63
2023-03-30T15:41:19.244Z,16.64
2023-03-30T15:43:56.050Z,16.27
2023-03-30T15:46:25.189Z,15.96
2023-03-30T15:48:54.680Z,16.01
2023-03-30T15:51:27.979Z,16.51
2023-03-30T15:53:59.568Z,16.49
2023-03-30T15:56:32.846Z,16.50
2023-03-30T15:59:01.770Z,16.14
2023-03-30T16:01:43.453Z,16.59
2023-03-30T16:04:15.257Z,16.47
2023-03-30T16:06:46.727Z,15.68
2023-03-30T16:09:16.094Z,15.64
2023-03-30T16:11:47.120Z,15.71
2023-03-30T16:14:18.446Z,15.77
2023-03-30T16:16:47.071Z,15.60
2023-03-30T16:19:17.577Z,15.91
2023-03-30T16:21:46.342Z,15.49
2023-03-30T16:24:14.859Z,15.40
2023-03-30T16:26:46.866Z,15.27
2023-03-30T16:29:16.656Z,16.38
2023-03-30T16:31:45.313Z,15.40
2023-03-30T16:34:13.696Z,15.23
2023-03-30T16:36:44.210Z,15.08
2023-03-30T16:39:18.257Z,15.78
2023-03-30T16:41:49.682Z,15.74
2023-03-30T16:44:18.650Z,15.36
2023-03-30T16:46:47.682Z,15.28
2023-03-30T16:49:17.779Z,15.61
2023-03-30T16:51:46.683Z,15.40
2023-03-30T16:54:29.646Z,15.09
2023-03-30T16:57:02.432Z,15.68
2023-03-30T16:59:32.920Z,15.45
2023-03-30T17:02:03.228Z,15.08
2023-03-30T17:04:31.765Z,15.04
2023-03-30T17:07:00.976Z,15.17
2023-03-30T17:09:30.060Z,15.04
2023-03-30T17:11:58.836Z,15.14
2023-03-30T17:14:30.681Z,15.50
2023-03-30T17:16:59.496Z,14.93
2023-03-30T17:19:29.223Z,15.09
2023-03-30T17:21:58.076Z,15.11
2023-03-30T17:24:26.523Z,15.09
2023-03-30T17:26:56.316Z,15.22
2023-03-30T17:29:24.758Z,15.01
2023-03-30T17:31:55.015Z,15.60
2023-03-30T17:34:23.433Z,15.04
2023-03-30T17:36:51.985Z,14.93
2023-03-30T17:39:20.585Z,15.13
2023-03-30T17:41:49.384Z,15.29
2023-03-30T17:44:17.625Z,15.26
2023-03-30T17:46:46.371Z,15.30
2023-03-30T17:49:18.548Z,15.88
2023-03-30T17:51:47.281Z,15.28
2023-03-30T17:54:15.876Z,15.31
2023-03-30T17:56:44.813Z,15.11
2023-03-30T17:59:13.539Z,15.32
2023-03-30T18:01:42.343Z,15.28
2023-03-30T18:04:10.863Z,15.24
2023-03-30T18:06:41.842Z,15.46
2023-03-30T18:09:15.705Z,15.70
2023-03-30T18:11:44.552Z,15.07
2023-03-30T18:14:12.875Z,15.10
2023-03-30T18:16:43.805Z,15.52
2023-03-30T18:19:13.320Z,15.30
2023-03-30T18:21:43.508Z,15.55
2023-03-30T18:24:12.203Z,15.23
2023-03-30T18:26:43.112Z,15.21
2023-03-30T18:29:20.541Z,15.77
2023-03-30T18:31:49.514Z,14.93
2023-03-30T18:34:19.751Z,14.82
2023-03-30T18:36:50.130Z,15.36
2023-03-30T18:39:20.185Z,15.29
2023-03-30T18:41:49.121Z,15.08
2023-03-30T18:44:17.975Z,15.06
2023-03-30T18:46:48.299Z,15.29
2023-03-30T18:49:17.491Z,15.11
2023-03-30T18:51:46.475Z,14.91
2023-03-30T18:54:16.253Z,15.21
2023-03-30T18:56:46.118Z,14.96
2023-03-30T18:59:15.045Z,14.99
2023-03-30T19:01:46.005Z,14.99
2023-03-30T19:04:14.423Z,14.83
2023-03-30T19:06:44.618Z,14.84
2023-03-30T19:09:12.940Z,14.74
2023-03-30T19:11:43.150Z,15.04
2023-03-30T19:14:12.268Z,15.06
2023-03-30T19:16:42.121Z,14.77
2023-03-30T19:19:14.927Z,14.64
2023-03-30T19:21:46.723Z,14.71
2023-03-30T19:24:15.265Z,14.80
2023-03-30T19:26:45.479Z,15.15
2023-03-30T19:29:14.441Z,14.68
2023-03-30T19:31:43.221Z,14.95
2023-03-30T19:34:11.897Z,14.98
2023-03-30T19:36:40.742Z,14.82
2023-03-30T19:39:09.370Z,14.60
2023-03-30T19:41:38.133Z,14.39
2023-03-30T19:44:07.981Z,14.81
2023-03-30T19:46:37.970Z,14.04
2023-03-30T19:49:06.999Z,14.00
2023-03-30T19:51:35.693Z,14.11
2023-03-30T19:54:04.590Z,14.23
2023-03-30T19:56:33.482Z,14.13
2023-03-30T19:59:01.882Z,14.03
2023-03-30T20:01:32.073Z,14.63
2023-03-30T20:04:00.894Z,14.05
2023-03-30T20:06:29.595Z,14.20
2023-03-30T20:08:57.984Z,14.22
2023-03-30T20:11:26.687Z,14.20
2023-03-30T20:13:55.671Z,14.31
2023-03-30T20:16:26.179Z,14.19
2023-03-30T20:18:57.248Z,14.67
2023-03-30T20:21:27.252Z,15.33
2023-03-30T20:23:58.758Z,14.43
2023-03-30T20:26:27.809Z,14.35
2023-03-30T20:28:56.714Z,14.35
2023-03-30T20:31:25.826Z,14.10
2023-03-30T20:33:55.933Z,14.82
2023-03-30T20:36:26.069Z,14.42
2023-03-30T20:38:55.484Z,14.42
2023-03-30T20:41:25.053Z,14.38
2023-03-30T20:43:57.365Z,14.34
2023-03-30T20:46:35.571Z,14.17
2023-03-30T20:49:06.133Z,14.56
2023-03-30T20:51:35.199Z,14.13
2023-03-30T20:54:03.493Z,14.17
2023-03-30T20:56:32.766Z,14.36
2023-03-30T20:59:02.970Z,14.39
2023-03-30T21:01:32.088Z,14.19
2023-03-30T21:04:02.608Z,14.60
2023-03-30T21:06:33.461Z,14.68
2023-03-30T21:09:05.129Z,14.46
2023-03-30T21:11:38.836Z,14.15
2023-03-30T21:14:08.012Z,14.25
2023-03-30T21:16:38.203Z,14.01
2023-03-30T21:19:07.143Z,14.08
2023-03-30T21:21:39.063Z,14.55
2023-03-30T21:24:08.942Z,14.29
2023-03-30T21:26:38.182Z,14.10
2023-03-30T21:29:07.017Z,13.87
2023-03-30T21:31:35.654Z,13.96
2023-03-30T21:34:04.306Z,13.96
2023-03-30T21:36:32.980Z,13.92
2023-03-30T21:39:02.997Z,14.32
2023-03-30T21:41:31.749Z,13.92
2023-03-30T21:44:00.114Z,13.95
2023-03-30T21:46:29.302Z,14.09
2023-03-30T21:48:57.593Z,14.07
2023-03-30T21:51:28.174Z,14.41
2023-03-30T21:53:57.325Z,14.13
2023-03-30T21:56:29.898Z,14.36
2023-03-30T21:58:58.527Z,13.98
2023-03-30T22:01:27.513Z,13.90
2023-03-30T22:03:56.742Z,14.17
2023-03-30T22:06:25.871Z,14.35
2023-03-30T22:08:54.202Z,14.23
2023-03-30T22:11:24.043Z,14.67
2023-03-30T22:13:55.474Z,14.74
2023-03-30T22:16:25.970Z,14.61
2023-03-30T22:18:54.374Z,14.47
2023-03-30T22:21:25.091Z,14.75
2023-03-30T22:23:54.744Z,14.77
2023-03-30T22:26:23.575Z,14.45
2023-03-30T22:28:53.271Z,14.75
2023-03-30T22:31:22.134Z,14.29
2023-03-30T22:33:50.896Z,14.29
2023-03-30T22:36:21.579Z,14.76
2023-03-30T22:38:51.015Z,14.38
2023-03-30T22:41:24.360Z,14.48
2023-03-30T22:43:55.412Z,14.60
2023-03-30T22:46:24.739Z,14.56
2023-03-30T22:48:55.692Z,14.44
2023-03-30T22:51:26.511Z,14.52
2023-03-30T22:53:56.756Z,14.86
2023-03-30T22:56:25.958Z,14.42
2023-03-30T22:58:57.954Z,14.84
2023-03-30T23:01:29.354Z,14.43
2023-03-30T23:03:59.743Z,14.35
2023-03-30T23:06:28.612Z,14.69
2023-03-30T23:08:56.921Z,14.39
2023-03-30T23:11:26.511Z,14.38
2023-03-30T23:13:57.087Z,14.90
2023-03-30T23:16:27.815Z,14.55
2023-03-30T23:18:56.222Z,14.36
2023-03-30T23:21:24.791Z,14.45
2023-03-30T23:23:53.063Z,14.38
2023-03-30T23:26:21.552Z,14.31
2023-03-30T23:28:49.793Z,14.28
2023-03-30T23:31:19.944Z,14.73
2023-03-30T23:33:48.161Z,14.37
2023-03-30T23:36:19.320Z,14.63
2023-03-30T23:38:48.192Z,14.78
2023-03-30T23:41:18.577Z,15.01
2023-03-30T23:43:47.624Z,14.77
2023-03-30T23:46:16.421Z,14.71
2023-03-30T23:48:46.091Z,15.00
2023-03-30T23:51:14.559Z,14.56
2023-03-30T23:53:42.820Z,14.57
2023-03-30T23:56:13.335Z,14.91
2023-03-30T23:58:41.777Z,14.70
